Time,TemperatureF,DewpointF,PressureIn,WindDirection,WindDirectionDegrees,WindSpeedMPH,WindSpeedGustMPH,Humidity,HourlyPrecipIn,Conditions,Clouds,dailyrainin,SoftwareType,DateUTC
2013-02-01 00:03:00,38.9,28.5,30.14,South,179,0.0,0.0,66,0.00,,,0.00,Wunderground v.1.15,2013-02-01 07:03:00,
2013-02-01 00:08:00,38.7,28.7,30.14,South,179,0.0,0.0,67,0.00,,,0.00,Wunderground v.1.15,2013-02-01 07:08:00,
2013-02-01 00:14:00,38.6,28.9,30.14,South,179,0.0,0.0,68,0.00,,,0.00,Wunderground v.1.15,2013-02-01 07:14:00,
2013-02-01 00:20:00,38.9,29.2,30.14,South,179,0.0,0.0,68,0.00,,,0.00,Wunderground v.1.15,2013-02-01 07:20:00,
2013-02-01 00:25:00,38.7,29.8,30.14,South,179,0.0,0.0,70,0.00,,,0.00,Wunderground v.1.15,2013-02-01 07:25:00,
2013-02-01 00:31:00,38.0,28.4,30.14,South,180,0.0,0.0,68,0.00,,,0.00,Wunderground v.1.15,2013-02-01 07:31:00,
2013-02-01 00:37:00,37.7,29.1,30.14,South,179,0.0,0.0,71,0.00,,,0.00,Wunderground v.1.15,2013-02-01 07:37:00,
2013-02-01 00:43:00,37.3,29.1,30.14,South,180,0.0,0.0,72,0.00,,,0.00,Wunderground v.1.15,2013-02-01 07:43:00,
2013-02-01 00:49:00,37.0,28.8,30.15,South,178,0.0,1.0,72,0.00,,,0.00,Wunderground v.1.15,2013-02-01 07:49:00,
2013-02-01 00:54:00,37.2,28.7,30.14,South,179,2.0,2.0,71,0.00,,,0.00,Wunderground v.1.15,2013-02-01 07:54:00,
2013-02-01 01:00:00,37.7,28.4,30.14,South,179,0.0,1.0,69,0.00,,,0.00,Wunderground v.1.15,2013-02-01 08:00:00,
2013-02-01 01:06:00,37.3,28.8,30.15,South,179,0.0,0.0,71,0.00,,,0.00,Wunderground v.1.15,2013-02-01 08:06:00,
2013-02-01 01:12:00,37.0,28.5,30.15,South,179,0.0,0.0,71,0.00,,,0.00,Wunderground v.1.15,2013-02-01 08:12:00,
2013-02-01 01:17:00,36.5,28.3,30.15,South,179,0.0,0.0,72,0.00,,,0.00,Wunderground v.1.15,2013-02-01 08:17:00,
2013-02-01 01:23:00,36.1,28.3,30.15,South,179,0.0,0.0,73,0.00,,,0.00,Wunderground v.1.15,2013-02-01 08:23:00,
2013-02-01 01:29:00,36.0,29.2,30.15,South,180,0.0,0.0,76,0.00,,,0.00,Wunderground v.1.15,2013-02-01 08:29:00,
2013-02-01 01:35:00,36.1,28.3,30.15,South,180,1.0,1.0,73,0.00,,,0.00,Wunderground v.1.15,2013-02-01 08:35:00,
2013-02-01 01:41:00,35.9,28.4,30.15,South,179,1.0,1.0,74,0.00,,,0.00,Wunderground v.1.15,2013-02-01 08:41:00,
2013-02-01 01:47:00,35.9,28.7,30.16,South,180,1.0,1.0,75,0.00,,,0.00,Wunderground v.1.15,2013-02-01 08:47:00,
2013-02-01 01:53:00,35.5,28.4,30.16,South,180,0.0,1.0,75,0.00,,,0.00,Wunderground v.1.15,2013-02-01 08:53:00,
2013-02-01 01:58:00,35.0,28.2,30.16,South,179,0.0,1.0,76,0.00,,,0.00,Wunderground v.1.15,2013-02-01 08:58:00,
2013-02-01 02:03:00,34.8,28.3,30.16,South,180,1.0,1.0,77,0.00,,,0.00,Wunderground v.1.15,2013-02-01 09:03:00,
2013-02-01 02:08:00,35.2,28.4,30.16,South,179,1.0,3.0,76,0.00,,,0.00,Wunderground v.1.15,2013-02-01 09:08:00,
2013-02-01 02:13:00,35.5,28.7,30.16,South,180,0.0,3.0,76,0.00,,,0.00,Wunderground v.1.15,2013-02-01 09:13:00,
2013-02-01 02:18:00,35.5,28.7,30.15,South,179,0.0,1.0,76,0.00,,,0.00,Wunderground v.1.15,2013-02-01 09:18:00,
2013-02-01 02:23:00,35.6,28.8,30.15,South,179,0.0,1.0,76,0.00,,,0.00,Wunderground v.1.15,2013-02-01 09:23:00,
2013-02-01 02:28:00,35.7,28.9,30.16,South,179,1.0,1.0,76,0.00,,,0.00,Wunderground v.1.15,2013-02-01 09:28:00,
2013-02-01 02:33:00,36.2,29.0,30.16,South,179,0.0,2.0,75,0.00,,,0.00,Wunderground v.1.15,2013-02-01 09:33:00,
2013-02-01 02:38:00,36.1,28.6,30.16,South,179,0.0,1.0,74,0.00,,,0.00,Wunderground v.1.15,2013-02-01 09:38:00,
2013-02-01 02:43:00,36.3,28.8,30.16,South,179,1.0,2.0,74,0.00,,,0.00,Wunderground v.1.15,2013-02-01 09:43:00,
2013-02-01 02:48:00,36.3,28.5,30.16,South,179,0.0,1.0,73,0.00,,,0.00,Wunderground v.1.15,2013-02-01 09:48:00,
2013-02-01 02:53:00,35.8,28.0,30.16,South,179,0.0,1.0,73,0.00,,,0.00,Wunderground v.1.15,2013-02-01 09:53:00,
2013-02-01 02:58:00,34.9,27.8,30.16,South,178,0.0,0.0,75,0.00,,,0.00,Wunderground v.1.15,2013-02-01 09:58:00,
2013-02-01 03:03:00,34.3,27.8,30.16,South,179,0.0,0.0,77,0.00,,,0.00,Wunderground v.1.15,2013-02-01 10:03:00,
2013-02-01 03:08:00,33.9,28.1,30.16,South,179,0.0,0.0,79,0.00,,,0.00,Wunderground v.1.15,2013-02-01 10:08:00,
2013-02-01 03:13:00,34.2,28.4,30.16,South,180,0.0,0.0,79,0.00,,,0.00,Wunderground v.1.15,2013-02-01 10:13:00,
2013-02-01 03:18:00,34.2,28.7,30.16,South,179,0.0,0.0,80,0.00,,,0.00,Wunderground v.1.15,2013-02-01 10:18:00,
2013-02-01 03:23:00,34.0,27.9,30.16,South,179,1.0,1.0,78,0.00,,,0.00,Wunderground v.1.15,2013-02-01 10:23:00,
2013-02-01 03:28:00,33.8,28.0,30.16,South,179,1.0,2.0,79,0.00,,,0.00,Wunderground v.1.15,2013-02-01 10:28:00,
2013-02-01 03:33:00,33.8,28.0,30.16,South,179,0.0,2.0,79,0.00,,,0.00,Wunderground v.1.15,2013-02-01 10:33:00,
2013-02-01 03:38:00,34.1,28.0,30.16,South,179,1.0,2.0,78,0.00,,,0.00,Wunderground v.1.15,2013-02-01 10:38:00,
2013-02-01 03:43:00,34.0,27.9,30.16,South,180,1.0,2.0,78,0.00,,,0.00,Wunderground v.1.15,2013-02-01 10:43:00,
2013-02-01 03:48:00,33.9,27.8,30.15,South,179,0.0,1.0,78,0.00,,,0.00,Wunderground v.1.15,2013-02-01 10:48:00,
2013-02-01 03:53:00,33.6,27.5,30.15,South,181,0.0,1.0,78,0.00,,,0.00,Wunderground v.1.15,2013-02-01 10:53:00,
2013-02-01 03:58:00,33.5,27.7,30.16,South,180,0.0,0.0,79,0.00,,,0.00,Wunderground v.1.15,2013-02-01 10:58:00,
2013-02-01 04:03:00,33.3,27.8,30.16,South,178,1.0,1.0,80,0.00,,,0.00,Wunderground v.1.15,2013-02-01 11:03:00,
2013-02-01 04:08:00,33.4,27.9,30.15,South,180,1.0,1.0,80,0.00,,,0.00,Wunderground v.1.15,2013-02-01 11:08:00,
2013-02-01 04:13:00,33.6,27.8,30.15,South,180,0.0,1.0,79,0.00,,,0.00,Wunderground v.1.15,2013-02-01 11:13:00,
2013-02-01 04:18:00,33.5,27.7,30.15,South,179,1.0,1.0,79,0.00,,,0.00,Wunderground v.1.15,2013-02-01 11:18:00,
2013-02-01 04:23:00,33.4,27.6,30.15,South,178,1.0,3.0,79,0.00,,,0.00,Wunderground v.1.15,2013-02-01 11:23:00,
2013-02-01 04:28:00,33.1,27.6,30.15,South,180,1.0,1.0,80,0.00,,,0.00,Wunderground v.1.15,2013-02-01 11:28:00,
2013-02-01 04:33:00,33.0,27.8,30.15,South,179,1.0,1.0,81,0.00,,,0.00,Wunderground v.1.15,2013-02-01 11:33:00,
2013-02-01 04:38:00,33.1,27.6,30.15,South,179,0.0,1.0,80,0.00,,,0.00,Wunderground v.1.15,2013-02-01 11:38:00,
2013-02-01 04:43:00,33.2,27.7,30.15,South,179,0.0,1.0,80,0.00,,,0.00,Wunderground v.1.15,2013-02-01 11:43:00,
2013-02-01 04:48:00,33.1,27.9,30.15,South,179,0.0,0.0,81,0.00,,,0.00,Wunderground v.1.15,2013-02-01 11:48:00,
2013-02-01 04:53:00,32.8,27.9,30.15,South,179,0.0,0.0,82,0.00,,,0.00,Wunderground v.1.15,2013-02-01 11:53:00,
2013-02-01 04:58:00,32.8,27.9,30.15,South,179,0.0,0.0,82,0.00,,,0.00,Wunderground v.1.15,2013-02-01 11:58:00,
2013-02-01 05:03:00,33.2,28.3,30.15,South,180,0.0,0.0,82,0.00,,,0.00,Wunderground v.1.15,2013-02-01 12:03:00,
2013-02-01 05:08:00,33.7,28.2,30.16,South,179,0.0,0.0,80,0.00,,,0.00,Wunderground v.1.15,2013-02-01 12:08:00,
2013-02-01 05:13:00,33.7,28.2,30.16,South,180,0.0,0.0,80,0.00,,,0.00,Wunderground v.1.15,2013-02-01 12:13:00,
2013-02-01 05:19:00,33.7,28.2,30.15,South,179,0.0,0.0,80,0.00,,,0.00,Wunderground v.1.15,2013-02-01 12:19:00,
2013-02-01 05:24:00,33.9,28.7,30.15,South,180,0.0,0.0,81,0.00,,,0.00,Wunderground v.1.15,2013-02-01 12:24:00,
2013-02-01 05:29:00,33.9,27.8,30.15,South,179,0.0,0.0,78,0.00,,,0.00,Wunderground v.1.15,2013-02-01 12:29:00,
2013-02-01 05:34:00,33.1,27.6,30.15,South,179,0.0,1.0,80,0.00,,,0.00,Wunderground v.1.15,2013-02-01 12:34:00,
2013-02-01 05:39:00,32.5,27.0,30.15,South,179,1.0,2.0,80,0.00,,,0.00,Wunderground v.1.15,2013-02-01 12:39:00,
2013-02-01 05:44:00,32.2,27.0,30.15,South,180,2.0,2.0,81,0.00,,,0.00,Wunderground v.1.15,2013-02-01 12:44:00,
2013-02-01 05:49:00,31.8,26.9,30.15,South,179,0.0,1.0,82,0.00,,,0.00,Wunderground v.1.15,2013-02-01 12:49:00,
2013-02-01 05:54:00,31.6,27.3,30.15,South,179,0.0,1.0,84,0.00,,,0.00,Wunderground v.1.15,2013-02-01 12:54:00,
2013-02-01 05:59:00,31.4,26.8,30.15,South,180,0.0,0.0,83,0.00,,,0.00,Wunderground v.1.15,2013-02-01 12:59:00,
2013-02-01 06:04:00,31.4,27.4,30.15,South,179,0.0,0.0,85,0.00,,,0.00,Wunderground v.1.15,2013-02-01 13:04:00,
2013-02-01 06:09:00,31.1,26.8,30.15,South,179,1.0,1.0,84,0.00,,,0.00,Wunderground v.1.15,2013-02-01 13:09:00,
2013-02-01 06:14:00,30.8,27.1,30.15,South,179,0.0,1.0,86,0.00,,,0.00,Wunderground v.1.15,2013-02-01 13:14:00,
2013-02-01 06:19:00,30.8,26.8,30.15,South,179,1.0,2.0,85,0.00,,,0.00,Wunderground v.1.15,2013-02-01 13:19:00,
2013-02-01 06:24:00,30.8,26.8,30.15,South,180,0.0,2.0,85,0.00,,,0.00,Wunderground v.1.15,2013-02-01 13:24:00,
2013-02-01 06:29:00,30.8,27.1,30.15,South,179,0.0,0.0,86,0.00,,,0.00,Wunderground v.1.15,2013-02-01 13:29:00,
2013-02-01 06:34:00,30.6,26.6,30.15,South,180,0.0,0.0,85,0.00,,,0.00,Wunderground v.1.15,2013-02-01 13:34:00,
2013-02-01 06:39:00,30.9,27.2,30.15,South,178,0.0,1.0,86,0.00,,,0.00,Wunderground v.1.15,2013-02-01 13:39:00,
2013-02-01 06:44:00,31.0,27.0,30.15,South,180,0.0,1.0,85,0.00,,,0.00,Wunderground v.1.15,2013-02-01 13:44:00,
2013-02-01 06:49:00,30.8,26.5,30.15,South,180,0.0,0.0,84,0.00,,,0.00,Wunderground v.1.15,2013-02-01 13:49:00,
2013-02-01 06:54:00,30.5,26.5,30.15,South,179,0.0,0.0,85,0.00,,,0.00,Wunderground v.1.15,2013-02-01 13:54:00,
2013-02-01 06:59:00,30.3,26.6,30.15,South,180,0.0,0.0,86,0.00,,,0.00,Wunderground v.1.15,2013-02-01 13:59:00,
2013-02-01 07:04:00,30.0,26.3,30.16,South,179,0.0,0.0,86,0.00,,,0.00,Wunderground v.1.15,2013-02-01 14:04:00,
2013-02-01 07:09:00,29.8,26.4,30.16,South,179,0.0,0.0,87,0.00,,,0.00,Wunderground v.1.15,2013-02-01 14:09:00,
2013-02-01 07:14:00,29.9,26.8,30.16,South,179,0.0,0.0,88,0.00,,,0.00,Wunderground v.1.15,2013-02-01 14:14:00,
2013-02-01 07:19:00,30.0,26.6,30.16,South,179,0.0,1.0,87,0.00,,,0.00,Wunderground v.1.15,2013-02-01 14:19:00,
2013-02-01 07:24:00,30.0,26.9,30.16,South,180,0.0,1.0,88,0.00,,,0.00,Wunderground v.1.15,2013-02-01 14:24:00,
2013-02-01 07:29:00,30.7,27.6,30.17,South,181,0.0,1.0,88,0.00,,,0.00,Wunderground v.1.15,2013-02-01 14:29:00,
2013-02-01 07:34:00,31.1,27.4,30.17,South,180,0.0,1.0,86,0.00,,,0.00,Wunderground v.1.15,2013-02-01 14:34:00,
2013-02-01 07:39:00,31.4,27.7,30.17,South,179,0.0,1.0,86,0.00,,,0.00,Wunderground v.1.15,2013-02-01 14:39:00,
2013-02-01 07:44:00,31.6,27.9,30.17,South,181,0.0,1.0,86,0.00,,,0.00,Wunderground v.1.15,2013-02-01 14:44:00,
2013-02-01 07:49:00,32.0,28.3,30.17,South,179,0.0,0.0,86,0.00,,,0.00,Wunderground v.1.15,2013-02-01 14:49:00,
2013-02-01 07:54:00,32.5,28.8,30.18,South,179,0.0,0.0,86,0.00,,,0.00,Wunderground v.1.15,2013-02-01 14:54:00,
2013-02-01 07:59:00,33.1,28.8,30.18,South,179,0.0,0.0,84,0.00,,,0.00,Wunderground v.1.15,2013-02-01 14:59:00,
2013-02-01 08:04:00,33.8,29.5,30.18,South,179,0.0,0.0,84,0.00,,,0.00,Wunderground v.1.15,2013-02-01 15:04:00,
2013-02-01 08:09:00,34.5,29.9,30.18,South,180,0.0,0.0,83,0.00,,,0.00,Wunderground v.1.15,2013-02-01 15:09:00,
2013-02-01 08:14:00,35.3,29.7,30.19,South,179,0.0,0.0,80,0.00,,,0.00,Wunderground v.1.15,2013-02-01 15:14:00,
2013-02-01 08:19:00,35.9,30.0,30.19,South,180,0.0,0.0,79,0.00,,,0.00,Wunderground v.1.15,2013-02-01 15:19:00,
2013-02-01 08:25:00,36.5,29.7,30.19,South,179,1.0,1.0,76,0.00,,,0.00,Wunderground v.1.15,2013-02-01 15:25:00,
2013-02-01 08:30:00,36.9,29.4,30.19,South,179,1.0,2.0,74,0.00,,,0.00,Wunderground v.1.15,2013-02-01 15:30:00,
2013-02-01 08:35:00,37.3,29.8,30.19,South,179,0.0,2.0,74,0.00,,,0.00,Wunderground v.1.15,2013-02-01 15:35:00,
2013-02-01 08:40:00,37.7,29.8,30.19,South,179,0.0,1.0,73,0.00,,,0.00,Wunderground v.1.15,2013-02-01 15:40:00,
2013-02-01 08:45:00,37.9,30.0,30.19,South,180,0.0,1.0,73,0.00,,,0.00,Wunderground v.1.15,2013-02-01 15:45:00,
2013-02-01 08:50:00,38.1,29.9,30.20,South,179,0.0,0.0,72,0.00,,,0.00,Wunderground v.1.15,2013-02-01 15:50:00,
2013-02-01 08:55:00,38.2,29.6,30.20,South,180,0.0,0.0,71,0.00,,,0.00,Wunderground v.1.15,2013-02-01 15:55:00,
2013-02-01 09:00:00,38.6,30.7,30.20,South,180,0.0,0.0,73,0.00,,,0.00,Wunderground v.1.15,2013-02-01 16:00:00,
2013-02-01 09:05:00,39.4,30.8,30.20,South,179,0.0,1.0,71,0.00,,,0.00,Wunderground v.1.15,2013-02-01 16:05:00,
2013-02-01 09:10:00,40.5,30.8,30.20,South,180,1.0,2.0,68,0.00,,,0.00,Wunderground v.1.15,2013-02-01 16:10:00,
2013-02-01 09:15:00,41.1,30.6,30.20,South,180,0.0,3.0,66,0.00,,,0.00,Wunderground v.1.15,2013-02-01 16:15:00,
2013-02-01 09:20:00,41.6,31.1,30.20,South,179,0.0,2.0,66,0.00,,,0.00,Wunderground v.1.15,2013-02-01 16:20:00,
2013-02-01 09:25:00,42.0,31.1,30.20,South,180,1.0,2.0,65,0.00,,,0.00,Wunderground v.1.15,2013-02-01 16:25:00,
2013-02-01 09:30:00,42.4,30.7,30.20,South,181,1.0,1.0,63,0.00,,,0.00,Wunderground v.1.15,2013-02-01 16:30:00,
2013-02-01 09:35:00,42.7,31.4,30.20,South,181,1.0,2.0,64,0.00,,,0.00,Wunderground v.1.15,2013-02-01 16:35:00,
2013-02-01 09:40:00,43.0,31.3,30.20,South,179,1.0,2.0,63,0.00,,,0.00,Wunderground v.1.15,2013-02-01 16:40:00,
2013-02-01 09:45:00,43.5,31.3,30.20,South,181,0.0,2.0,62,0.00,,,0.00,Wunderground v.1.15,2013-02-01 16:45:00,
2013-02-01 09:50:00,43.8,31.2,30.20,South,180,0.0,1.0,61,0.00,,,0.00,Wunderground v.1.15,2013-02-01 16:50:00,
2013-02-01 09:55:00,44.2,31.6,30.19,South,179,0.0,2.0,61,0.00,,,0.00,Wunderground v.1.15,2013-02-01 16:55:00,
2013-02-01 10:00:00,44.5,31.5,30.20,South,179,1.0,1.0,60,0.00,,,0.00,Wunderground v.1.15,2013-02-01 17:00:00,
2013-02-01 10:05:00,44.7,31.2,30.19,South,180,0.0,2.0,59,0.00,,,0.00,Wunderground v.1.15,2013-02-01 17:05:00,
2013-02-01 10:10:00,45.0,31.5,30.19,South,179,0.0,2.0,59,0.00,,,0.00,Wunderground v.1.15,2013-02-01 17:10:00,
2013-02-01 10:15:00,45.6,31.7,30.19,South,180,1.0,2.0,58,0.00,,,0.00,Wunderground v.1.15,2013-02-01 17:15:00,
2013-02-01 10:20:00,46.0,31.6,30.19,South,180,0.0,2.0,57,0.00,,,0.00,Wunderground v.1.15,2013-02-01 17:20:00,
2013-02-01 10:25:00,46.6,31.3,30.19,South,179,1.0,2.0,55,0.00,,,0.00,Wunderground v.1.15,2013-02-01 17:25:00,
2013-02-01 10:30:00,47.2,31.4,30.19,South,179,0.0,2.0,54,0.00,,,0.00,Wunderground v.1.15,2013-02-01 17:30:00,
2013-02-01 10:35:00,47.7,30.4,30.19,South,179,1.0,2.0,51,0.00,,,0.00,Wunderground v.1.15,2013-02-01 17:35:00,
2013-02-01 10:40:00,47.7,30.9,30.18,South,180,0.0,3.0,52,0.00,,,0.00,Wunderground v.1.15,2013-02-01 17:40:00,
2013-02-01 10:45:00,48.3,31.0,30.18,South,179,1.0,3.0,51,0.00,,,0.00,Wunderground v.1.15,2013-02-01 17:45:00,
2013-02-01 10:50:00,48.7,31.8,30.19,South,180,1.0,2.0,52,0.00,,,0.00,Wunderground v.1.15,2013-02-01 17:50:00,
2013-02-01 10:55:00,49.2,30.8,30.18,South,179,1.0,3.0,49,0.00,,,0.00,Wunderground v.1.15,2013-02-01 17:55:00,
2013-02-01 11:00:00,49.7,30.8,30.19,South,180,0.0,2.0,48,0.00,,,0.00,Wunderground v.1.15,2013-02-01 18:00:00,
2013-02-01 11:05:00,50.4,30.9,30.19,South,180,0.0,2.0,47,0.00,,,0.00,Wunderground v.1.15,2013-02-01 18:05:00,
2013-02-01 11:10:00,50.7,31.2,30.19,South,180,1.0,2.0,47,0.00,,,0.00,Wunderground v.1.15,2013-02-01 18:10:00,
2013-02-01 11:15:00,50.8,30.7,30.19,South,180,1.0,2.0,46,0.00,,,0.00,Wunderground v.1.15,2013-02-01 18:15:00,
2013-02-01 11:20:00,51.0,30.9,30.18,South,179,1.0,2.0,46,0.00,,,0.00,Wunderground v.1.15,2013-02-01 18:20:00,
2013-02-01 11:25:00,51.2,31.1,30.18,South,179,0.0,2.0,46,0.00,,,0.00,Wunderground v.1.15,2013-02-01 18:25:00,
2013-02-01 11:30:00,52.0,31.3,30.18,South,179,0.0,2.0,45,0.00,,,0.00,Wunderground v.1.15,2013-02-01 18:30:00,
2013-02-01 11:35:00,52.5,31.2,30.17,South,179,0.0,2.0,44,0.00,,,0.00,Wunderground v.1.15,2013-02-01 18:35:00,
2013-02-01 11:40:00,52.8,31.5,30.17,South,179,0.0,2.0,44,0.00,,,0.00,Wunderground v.1.15,2013-02-01 18:40:00,
2013-02-01 11:45:00,53.2,31.8,30.17,South,179,0.0,2.0,44,0.00,,,0.00,Wunderground v.1.15,2013-02-01 18:45:00,
2013-02-01 11:50:00,53.6,31.0,30.17,South,179,2.0,2.0,42,0.00,,,0.00,Wunderground v.1.15,2013-02-01 18:50:00,
2013-02-01 11:55:00,53.9,31.9,30.17,South,181,0.0,2.0,43,0.00,,,0.00,Wunderground v.1.15,2013-02-01 18:55:00,
2013-02-01 12:00:00,54.4,31.8,30.16,South,179,1.0,2.0,42,0.00,,,0.00,Wunderground v.1.15,2013-02-01 19:00:00,
2013-02-01 12:05:00,54.8,31.5,30.16,South,180,1.0,3.0,41,0.00,,,0.00,Wunderground v.1.15,2013-02-01 19:05:00,
2013-02-01 12:10:00,54.9,31.0,30.16,South,180,0.0,3.0,40,0.00,,,0.00,Wunderground v.1.15,2013-02-01 19:10:00,
2013-02-01 12:15:00,55.1,31.2,30.16,South,179,0.0,3.0,40,0.00,,,0.00,Wunderground v.1.15,2013-02-01 19:15:00,
2013-02-01 12:20:00,55.6,31.6,30.15,South,179,0.0,3.0,40,0.00,,,0.00,Wunderground v.1.15,2013-02-01 19:20:00,
2013-02-01 12:25:00,56.0,32.0,30.15,South,179,0.0,3.0,40,0.00,,,0.00,Wunderground v.1.15,2013-02-01 19:25:00,
2013-02-01 12:30:00,56.4,31.7,30.15,South,179,0.0,2.0,39,0.00,,,0.00,Wunderground v.1.15,2013-02-01 19:30:00,
2013-02-01 12:35:00,56.3,31.0,30.14,South,180,1.0,2.0,38,0.00,,,0.00,Wunderground v.1.15,2013-02-01 19:35:00,
2013-02-01 12:40:00,55.9,30.6,30.14,South,179,0.0,3.0,38,0.00,,,0.00,Wunderground v.1.15,2013-02-01 19:40:00,
2013-02-01 12:45:00,56.6,31.3,30.14,South,179,1.0,3.0,38,0.00,,,0.00,Wunderground v.1.15,2013-02-01 19:45:00,
2013-02-01 12:50:00,57.0,31.0,30.13,South,179,1.0,2.0,37,0.00,,,0.00,Wunderground v.1.15,2013-02-01 19:50:00,
2013-02-01 12:55:00,57.4,31.3,30.13,South,179,0.0,3.0,37,0.00,,,0.00,Wunderground v.1.15,2013-02-01 19:55:00,
2013-02-01 13:01:00,58.2,32.0,30.13,South,179,1.0,3.0,37,0.00,,,0.00,Wunderground v.1.15,2013-02-01 20:01:00,
2013-02-01 13:06:00,58.5,31.6,30.12,South,179,2.0,4.0,36,0.00,,,0.00,Wunderground v.1.15,2013-02-01 20:06:00,
2013-02-01 13:11:00,58.9,31.3,30.12,South,180,1.0,3.0,35,0.00,,,0.00,Wunderground v.1.15,2013-02-01 20:11:00,
2013-02-01 13:16:00,59.1,31.4,30.12,South,180,2.0,3.0,35,0.00,,,0.00,Wunderground v.1.15,2013-02-01 20:16:00,
2013-02-01 13:21:00,59.5,31.8,30.12,South,180,0.0,3.0,35,0.00,,,0.00,Wunderground v.1.15,2013-02-01 20:21:00,
2013-02-01 13:26:00,59.9,31.4,30.12,South,181,0.0,3.0,34,0.00,,,0.00,Wunderground v.1.15,2013-02-01 20:26:00,
2013-02-01 13:31:00,60.1,31.6,30.11,South,179,0.0,1.0,34,0.00,,,0.00,Wunderground v.1.15,2013-02-01 20:31:00,
2013-02-01 13:36:00,60.9,30.8,30.11,South,180,1.0,2.0,32,0.00,,,0.00,Wunderground v.1.15,2013-02-01 20:36:00,
2013-02-01 13:41:00,60.9,30.0,30.11,South,178,0.0,2.0,31,0.00,,,0.00,Wunderground v.1.15,2013-02-01 20:41:00,
2013-02-01 13:46:00,61.0,30.9,30.10,South,180,0.0,4.0,32,0.00,,,0.00,Wunderground v.1.15,2013-02-01 20:46:00,
2013-02-01 13:51:00,61.3,31.2,30.10,South,180,3.0,4.0,32,0.00,,,0.00,Wunderground v.1.15,2013-02-01 20:51:00,
2013-02-01 13:56:00,61.5,31.3,30.10,South,179,1.0,4.0,32,0.00,,,0.00,Wunderground v.1.15,2013-02-01 20:56:00,
2013-02-01 14:01:00,61.6,29.8,30.09,South,179,1.0,4.0,30,0.00,,,0.00,Wunderground v.1.15,2013-02-01 21:01:00,
2013-02-01 14:06:00,61.6,29.8,30.09,South,179,2.0,4.0,30,0.00,,,0.00,Wunderground v.1.15,2013-02-01 21:06:00,
2013-02-01 14:11:00,61.8,30.8,30.09,South,181,0.0,3.0,31,0.00,,,0.00,Wunderground v.1.15,2013-02-01 21:11:00,
2013-02-01 14:16:00,62.2,30.4,30.09,South,179,2.0,3.0,30,0.00,,,0.00,Wunderground v.1.15,2013-02-01 21:16:00,
2013-02-01 14:21:00,62.3,30.4,30.09,South,179,1.0,4.0,30,0.00,,,0.00,Wunderground v.1.15,2013-02-01 21:21:00,
2013-02-01 14:26:00,62.2,29.5,30.09,South,179,0.0,4.0,29,0.00,,,0.00,Wunderground v.1.15,2013-02-01 21:26:00,
2013-02-01 14:31:00,62.1,29.4,30.09,South,179,1.0,2.0,29,0.00,,,0.00,Wunderground v.1.15,2013-02-01 21:31:00,
2013-02-01 14:36:00,62.3,29.6,30.09,South,179,1.0,4.0,29,0.00,,,0.00,Wunderground v.1.15,2013-02-01 21:36:00,
2013-02-01 14:41:00,62.3,29.6,30.09,South,179,0.0,3.0,29,0.00,,,0.00,Wunderground v.1.15,2013-02-01 21:41:00,
2013-02-01 14:46:00,62.5,28.9,30.09,South,180,1.0,1.0,28,0.00,,,0.00,Wunderground v.1.15,2013-02-01 21:46:00,
2013-02-01 14:51:00,62.9,31.0,30.09,South,179,0.0,1.0,30,0.00,,,0.00,Wunderground v.1.15,2013-02-01 21:51:00,
2013-02-01 14:56:00,63.5,29.8,30.09,South,180,0.0,1.0,28,0.00,,,0.00,Wunderground v.1.15,2013-02-01 21:56:00,
2013-02-01 15:01:00,63.6,29.9,30.09,South,180,2.0,3.0,28,0.00,,,0.00,Wunderground v.1.15,2013-02-01 22:01:00,
2013-02-01 15:06:00,63.3,29.6,30.09,South,179,0.0,1.0,28,0.00,,,0.00,Wunderground v.1.15,2013-02-01 22:06:00,
2013-02-01 15:11:00,63.5,29.8,30.08,South,179,0.0,2.0,28,0.00,,,0.00,Wunderground v.1.15,2013-02-01 22:11:00,
2013-02-01 15:16:00,63.9,29.2,30.08,South,180,3.0,3.0,27,0.00,,,0.00,Wunderground v.1.15,2013-02-01 22:16:00,
2013-02-01 15:21:00,63.5,29.8,30.08,South,180,1.0,4.0,28,0.00,,,0.00,Wunderground v.1.15,2013-02-01 22:21:00,
2013-02-01 15:26:00,63.7,29.1,30.08,South,180,0.0,1.0,27,0.00,,,0.00,Wunderground v.1.15,2013-02-01 22:26:00,
2013-02-01 15:31:00,64.1,29.4,30.08,South,180,1.0,2.0,27,0.00,,,0.00,Wunderground v.1.15,2013-02-01 22:31:00,
2013-02-01 15:36:00,64.3,29.6,30.08,South,179,0.0,1.0,27,0.00,,,0.00,Wunderground v.1.15,2013-02-01 22:36:00,
2013-02-01 15:41:00,64.5,28.8,30.08,South,180,0.0,2.0,26,0.00,,,0.00,Wunderground v.1.15,2013-02-01 22:41:00,
2013-02-01 15:46:00,64.2,28.6,30.07,South,180,1.0,1.0,26,0.00,,,0.00,Wunderground v.1.15,2013-02-01 22:46:00,
2013-02-01 15:51:00,64.1,30.3,30.07,South,179,0.0,1.0,28,0.00,,,0.00,Wunderground v.1.15,2013-02-01 22:51:00,
2013-02-01 15:56:00,64.5,29.7,30.07,South,179,2.0,2.0,27,0.00,,,0.00,Wunderground v.1.15,2013-02-01 22:56:00,
2013-02-01 16:01:00,64.6,29.8,30.07,South,179,0.0,2.0,27,0.00,,,0.00,Wunderground v.1.15,2013-02-01 23:01:00,
2013-02-01 16:06:00,64.1,29.4,30.07,South,180,1.0,1.0,27,0.00,,,0.00,Wunderground v.1.15,2013-02-01 23:06:00,
2013-02-01 16:11:00,64.1,28.5,30.07,South,178,0.0,3.0,26,0.00,,,0.00,Wunderground v.1.15,2013-02-01 23:11:00,
2013-02-01 16:16:00,63.9,28.3,30.07,South,179,0.0,1.0,26,0.00,,,0.00,Wunderground v.1.15,2013-02-01 23:16:00,
2013-02-01 16:21:00,64.2,29.5,30.07,South,180,0.0,1.0,27,0.00,,,0.00,Wunderground v.1.15,2013-02-01 23:21:00,
2013-02-01 16:26:00,64.8,30.0,30.07,South,179,0.0,0.0,27,0.00,,,0.00,Wunderground v.1.15,2013-02-01 23:26:00,
2013-02-01 16:31:00,64.8,29.1,30.07,South,179,0.0,1.0,26,0.00,,,0.00,Wunderground v.1.15,2013-02-01 23:31:00,
2013-02-01 16:36:00,65.4,28.6,30.07,South,180,1.0,2.0,25,0.00,,,0.00,Wunderground v.1.15,2013-02-01 23:36:00,
2013-02-01 16:41:00,65.2,29.4,30.07,South,179,0.0,2.0,26,0.00,,,0.00,Wunderground v.1.15,2013-02-01 23:41:00,
2013-02-01 16:46:00,65.0,29.2,30.07,South,180,0.0,0.0,26,0.00,,,0.00,Wunderground v.1.15,2013-02-01 23:46:00,
2013-02-01 16:51:00,64.9,29.2,30.06,South,179,0.0,1.0,26,0.00,,,0.00,Wunderground v.1.15,2013-02-01 23:51:00,
2013-02-01 16:56:00,65.4,29.6,30.07,South,180,0.0,1.0,26,0.00,,,0.00,Wunderground v.1.15,2013-02-01 23:56:00,
2013-02-01 17:02:00,65.4,30.5,30.06,South,179,0.0,1.0,27,0.00,,,0.00,Wunderground v.1.15,2013-02-02 00:02:00,
2013-02-01 17:07:00,65.2,30.3,30.06,South,179,0.0,0.0,27,0.00,,,0.00,Wunderground v.1.15,2013-02-02 00:07:00,
2013-02-01 17:12:00,65.2,30.3,30.06,South,179,0.0,0.0,27,0.00,,,0.00,Wunderground v.1.15,2013-02-02 00:12:00,
2013-02-01 17:17:00,63.9,30.1,30.06,South,179,1.0,2.0,28,0.00,,,0.00,Wunderground v.1.15,2013-02-02 00:17:00,
2013-02-01 17:22:00,61.8,30.8,30.06,South,179,0.0,2.0,31,0.00,,,0.00,Wunderground v.1.15,2013-02-02 00:22:00,
2013-02-01 17:27:00,60.2,31.0,30.06,South,179,0.0,1.0,33,0.00,,,0.00,Wunderground v.1.15,2013-02-02 00:27:00,
2013-02-01 17:32:00,59.1,30.7,30.06,South,179,0.0,1.0,34,0.00,,,0.00,Wunderground v.1.15,2013-02-02 00:32:00,
2013-02-01 17:37:00,58.2,30.7,30.06,South,179,0.0,1.0,35,0.00,,,0.00,Wunderground v.1.15,2013-02-02 00:37:00,
2013-02-01 17:42:00,57.4,30.6,30.06,South,180,1.0,2.0,36,0.00,,,0.00,Wunderground v.1.15,2013-02-02 00:42:00,
2013-02-01 17:47:00,56.8,30.8,30.06,South,179,1.0,1.0,37,0.00,,,0.00,Wunderground v.1.15,2013-02-02 00:47:00,
2013-02-01 17:52:00,56.5,30.5,30.06,South,179,0.0,2.0,37,0.00,,,0.00,Wunderground v.1.15,2013-02-02 00:52:00,
2013-02-01 17:57:00,56.1,30.2,30.06,South,181,0.0,1.0,37,0.00,,,0.00,Wunderground v.1.15,2013-02-02 00:57:00,
2013-02-01 18:02:00,55.8,30.5,30.07,South,179,0.0,2.0,38,0.00,,,0.00,Wunderground v.1.15,2013-02-02 01:02:00,
2013-02-01 18:07:00,55.5,30.3,30.07,South,179,0.0,2.0,38,0.00,,,0.00,Wunderground v.1.15,2013-02-02 01:07:00,
2013-02-01 18:12:00,55.1,29.9,30.07,South,179,1.0,2.0,38,0.00,,,0.00,Wunderground v.1.15,2013-02-02 01:12:00,
2013-02-01 18:17:00,54.6,30.7,30.07,South,179,0.0,1.0,40,0.00,,,0.00,Wunderground v.1.15,2013-02-02 01:17:00,
2013-02-01 18:22:00,53.3,30.2,30.07,South,180,0.0,1.0,41,0.00,,,0.00,Wunderground v.1.15,2013-02-02 01:22:00,
2013-02-01 18:27:00,52.5,30.6,30.07,South,179,1.0,1.0,43,0.00,,,0.00,Wunderground v.1.15,2013-02-02 01:27:00,
2013-02-01 18:32:00,52.0,30.7,30.08,South,180,1.0,1.0,44,0.00,,,0.00,Wunderground v.1.15,2013-02-02 01:32:00,
2013-02-01 18:37:00,51.5,30.3,30.08,South,179,0.0,1.0,44,0.00,,,0.00,Wunderground v.1.15,2013-02-02 01:37:00,
2013-02-01 18:42:00,50.9,30.3,30.08,South,179,0.0,1.0,45,0.00,,,0.00,Wunderground v.1.15,2013-02-02 01:42:00,
2013-02-01 18:47:00,50.4,29.3,30.09,South,180,1.0,1.0,44,0.00,,,0.00,Wunderground v.1.15,2013-02-02 01:47:00,
2013-02-01 18:52:00,50.2,29.1,30.09,South,180,1.0,1.0,44,0.00,,,0.00,Wunderground v.1.15,2013-02-02 01:52:00,
2013-02-01 18:57:00,50.0,28.9,30.10,South,179,0.0,1.0,44,0.00,,,0.00,Wunderground v.1.15,2013-02-02 01:57:00,
2013-02-01 19:02:00,49.8,28.7,30.10,South,179,0.0,1.0,44,0.00,,,0.00,Wunderground v.1.15,2013-02-02 02:02:00,
2013-02-01 19:07:00,49.9,28.8,30.10,South,179,1.0,1.0,44,0.00,,,0.00,Wunderground v.1.15,2013-02-02 02:07:00,
2013-02-01 19:12:00,49.9,29.4,30.11,South,179,1.0,1.0,45,0.00,,,0.00,Wunderground v.1.15,2013-02-02 02:12:00,
2013-02-01 19:17:00,49.8,29.3,30.11,South,178,1.0,1.0,45,0.00,,,0.00,Wunderground v.1.15,2013-02-02 02:17:00,
2013-02-01 19:22:00,49.6,29.6,30.11,South,179,1.0,2.0,46,0.00,,,0.00,Wunderground v.1.15,2013-02-02 02:22:00,
2013-02-01 19:27:00,49.4,29.5,30.12,South,180,0.0,1.0,46,0.00,,,0.00,Wunderground v.1.15,2013-02-02 02:27:00,
2013-02-01 19:32:00,49.1,29.2,30.12,South,179,0.0,1.0,46,0.00,,,0.00,Wunderground v.1.15,2013-02-02 02:32:00,
2013-02-01 19:37:00,48.7,29.9,30.12,South,179,1.0,2.0,48,0.00,,,0.00,Wunderground v.1.15,2013-02-02 02:37:00,
2013-02-01 19:42:00,48.3,29.5,30.12,South,181,0.0,2.0,48,0.00,,,0.00,Wunderground v.1.15,2013-02-02 02:42:00,
2013-02-01 19:47:00,47.9,29.1,30.12,South,179,1.0,1.0,48,0.00,,,0.00,Wunderground v.1.15,2013-02-02 02:47:00,
2013-02-01 19:52:00,47.7,28.9,30.12,South,179,1.0,2.0,48,0.00,,,0.00,Wunderground v.1.15,2013-02-02 02:52:00,
2013-02-01 19:57:00,47.3,28.6,30.12,South,179,0.0,1.0,48,0.00,,,0.00,Wunderground v.1.15,2013-02-02 02:57:00,
2013-02-01 20:02:00,46.8,28.1,30.13,South,179,0.0,2.0,48,0.00,,,0.00,Wunderground v.1.15,2013-02-02 03:02:00,
2013-02-01 20:07:00,46.6,28.4,30.13,South,179,0.0,1.0,49,0.00,,,0.00,Wunderground v.1.15,2013-02-02 03:07:00,
2013-02-01 20:12:00,46.6,27.9,30.13,South,179,0.0,1.0,48,0.00,,,0.00,Wunderground v.1.15,2013-02-02 03:12:00,
2013-02-01 20:17:00,47.3,27.0,30.13,South,179,1.0,2.0,45,0.00,,,0.00,Wunderground v.1.15,2013-02-02 03:17:00,
2013-02-01 20:22:00,48.0,27.1,30.13,South,179,1.0,2.0,44,0.00,,,0.00,Wunderground v.1.15,2013-02-02 03:22:00,
2013-02-01 20:28:00,48.5,27.6,30.14,South,179,0.0,1.0,44,0.00,,,0.00,Wunderground v.1.15,2013-02-02 03:28:00,
2013-02-01 20:33:00,48.1,26.6,30.14,South,180,0.0,2.0,43,0.00,,,0.00,Wunderground v.1.15,2013-02-02 03:33:00,
2013-02-01 20:38:00,47.6,27.3,30.14,South,181,2.0,2.0,45,0.00,,,0.00,Wunderground v.1.15,2013-02-02 03:38:00,
2013-02-01 20:43:00,47.0,26.7,30.14,South,179,0.0,2.0,45,0.00,,,0.00,Wunderground v.1.15,2013-02-02 03:43:00,
2013-02-01 20:48:00,46.9,26.6,30.14,South,180,1.0,2.0,45,0.00,,,0.00,Wunderground v.1.15,2013-02-02 03:48:00,
2013-02-01 20:53:00,47.3,26.5,30.15,South,179,1.0,3.0,44,0.00,,,0.00,Wunderground v.1.15,2013-02-02 03:53:00,
2013-02-01 20:58:00,47.2,26.9,30.15,South,179,1.0,1.0,45,0.00,,,0.00,Wunderground v.1.15,2013-02-02 03:58:00,
2013-02-01 21:03:00,46.9,26.6,30.15,South,179,1.0,1.0,45,0.00,,,0.00,Wunderground v.1.15,2013-02-02 04:03:00,
2013-02-01 21:08:00,46.7,26.5,30.15,South,179,0.0,1.0,45,0.00,,,0.00,Wunderground v.1.15,2013-02-02 04:08:00,
2013-02-01 21:13:00,46.4,26.7,30.15,South,179,0.0,1.0,46,0.00,,,0.00,Wunderground v.1.15,2013-02-02 04:13:00,
2013-02-01 21:18:00,45.9,27.3,30.15,South,179,0.0,0.0,48,0.00,,,0.00,Wunderground v.1.15,2013-02-02 04:18:00,
2013-02-01 21:23:00,45.3,27.2,30.16,South,179,0.0,0.0,49,0.00,,,0.00,Wunderground v.1.15,2013-02-02 04:23:00,
2013-02-01 21:28:00,44.5,27.5,30.16,South,180,0.0,0.0,51,0.00,,,0.00,Wunderground v.1.15,2013-02-02 04:28:00,
2013-02-01 21:33:00,44.0,27.5,30.16,South,179,0.0,1.0,52,0.00,,,0.00,Wunderground v.1.15,2013-02-02 04:33:00,
2013-02-01 21:38:00,44.2,27.2,30.16,South,179,0.0,0.0,51,0.00,,,0.00,Wunderground v.1.15,2013-02-02 04:38:00,
2013-02-01 21:43:00,44.1,27.6,30.16,South,179,0.0,0.0,52,0.00,,,0.00,Wunderground v.1.15,2013-02-02 04:43:00,
2013-02-01 21:48:00,43.5,27.9,30.16,South,179,0.0,0.0,54,0.00,,,0.00,Wunderground v.1.15,2013-02-02 04:48:00,
2013-02-01 21:53:00,42.8,27.7,30.17,South,181,0.0,0.0,55,0.00,,,0.00,Wunderground v.1.15,2013-02-02 04:53:00,
2013-02-01 21:58:00,42.6,28.0,30.17,South,179,0.0,0.0,56,0.00,,,0.00,Wunderground v.1.15,2013-02-02 04:58:00,
2013-02-01 22:00:00,42.5,27.9,30.17,South,180,0.0,0.0,56,0.00,,,0.00,Wunderground v.1.15,2013-02-02 05:00:00,
2013-02-01 22:01:00,42.5,27.9,30.17,South,179,1.0,1.0,56,0.00,,,0.00,Wunderground v.1.15,2013-02-02 05:01:00,
2013-02-01 22:06:00,42.5,28.8,30.17,South,180,0.0,1.0,58,0.00,,,0.00,Wunderground v.1.15,2013-02-02 05:06:00,
2013-02-01 22:11:00,42.0,29.1,30.17,South,180,0.0,0.0,60,0.00,,,0.00,Wunderground v.1.15,2013-02-02 05:11:00,
2013-02-01 22:16:00,41.5,29.4,30.17,South,179,0.0,0.0,62,0.00,,,0.00,Wunderground v.1.15,2013-02-02 05:16:00,
2013-02-01 22:21:00,41.5,29.4,30.17,South,179,0.0,1.0,62,0.00,,,0.00,Wunderground v.1.15,2013-02-02 05:21:00,
2013-02-01 22:26:00,41.3,30.0,30.17,South,178,0.0,1.0,64,0.00,,,0.00,Wunderground v.1.15,2013-02-02 05:26:00,
2013-02-01 22:31:00,41.1,29.8,30.17,South,179,0.0,0.0,64,0.00,,,0.00,Wunderground v.1.15,2013-02-02 05:31:00,
2013-02-01 22:36:00,40.6,29.4,30.18,South,179,0.0,1.0,64,0.00,,,0.00,Wunderground v.1.15,2013-02-02 05:36:00,
2013-02-01 22:41:00,40.4,30.3,30.18,South,180,0.0,0.0,67,0.00,,,0.00,Wunderground v.1.15,2013-02-02 05:41:00,
2013-02-01 22:46:00,40.1,29.6,30.18,South,180,0.0,0.0,66,0.00,,,0.00,Wunderground v.1.15,2013-02-02 05:46:00,
2013-02-01 22:51:00,40.1,29.3,30.18,South,180,1.0,1.0,65,0.00,,,0.00,Wunderground v.1.15,2013-02-02 05:51:00,
2013-02-01 22:56:00,40.1,28.9,30.18,South,179,0.0,1.0,64,0.00,,,0.00,Wunderground v.1.15,2013-02-02 05:56:00,
2013-02-01 23:01:00,40.0,29.2,30.18,South,180,0.0,1.0,65,0.00,,,0.00,Wunderground v.1.15,2013-02-02 06:01:00,
2013-02-01 23:06:00,39.8,29.0,30.18,South,179,0.0,1.0,65,0.00,,,0.00,Wunderground v.1.15,2013-02-02 06:06:00,
2013-02-01 23:11:00,39.7,29.3,30.18,South,179,0.0,1.0,66,0.00,,,0.00,Wunderground v.1.15,2013-02-02 06:11:00,
2013-02-01 23:16:00,40.0,29.2,30.19,South,179,1.0,1.0,65,0.00,,,0.00,Wunderground v.1.15,2013-02-02 06:16:00,
2013-02-01 23:21:00,40.7,29.5,30.19,South,179,0.0,2.0,64,0.00,,,0.00,Wunderground v.1.15,2013-02-02 06:21:00,
2013-02-01 23:26:00,41.1,29.5,30.19,South,180,0.0,2.0,63,0.00,,,0.00,Wunderground v.1.15,2013-02-02 06:26:00,
2013-02-01 23:31:00,41.0,29.0,30.19,South,179,0.0,1.0,62,0.00,,,0.00,Wunderground v.1.15,2013-02-02 06:31:00,
2013-02-01 23:36:00,41.0,29.0,30.19,South,180,0.0,1.0,62,0.00,,,0.00,Wunderground v.1.15,2013-02-02 06:36:00,
2013-02-01 23:41:00,40.8,28.8,30.19,South,179,1.0,2.0,62,0.00,,,0.00,Wunderground v.1.15,2013-02-02 06:41:00,
2013-02-01 23:46:00,40.9,28.9,30.19,South,178,1.0,2.0,62,0.00,,,0.00,Wunderground v.1.15,2013-02-02 06:46:00,
2013-02-01 23:51:00,40.7,28.7,30.19,South,179,1.0,2.0,62,0.00,,,0.00,Wunderground v.1.15,2013-02-02 06:51:00,
2013-02-01 23:56:00,40.8,28.8,30.19,South,179,0.0,2.0,62,0.00,,,0.00,Wunderground v.1.15,2013-02-02 06:56:00,